createdAt,value
2022-10-04T00:01:09.677Z,95371.97
2022-10-04T00:03:44.969Z,95541.53
2022-10-04T00:06:19.636Z,95483.69
2022-10-04T00:08:52.351Z,95536.78
2022-10-04T00:11:26.635Z,95498.38
2022-10-04T00:13:56.339Z,95541.38
2022-10-04T00:16:29.688Z,95550.72
2022-10-04T00:19:25.873Z,95533.09
2022-10-04T00:22:17.484Z,95528.63
2022-10-04T00:25:19.562Z,95514.53
2022-10-04T00:28:18.130Z,95528.63
2022-10-04T00:30:46.085Z,95487.06
2022-10-04T00:33:37.536Z,95522.78
2022-10-04T00:36:47.424Z,95493.19
2022-10-04T00:39:40.610Z,95510.13
2022-10-04T00:42:24.896Z,95519.47
2022-10-04T00:44:57.920Z,95504.25
2022-10-04T00:47:32.126Z,95507.81
2022-10-04T00:50:09.636Z,95506.25
2022-10-04T00:52:43.978Z,95494.50
2022-10-04T00:55:26.159Z,95489.09
2022-10-04T00:58:00.443Z,95486.75
2022-10-04T01:00:33.648Z,95479.56
2022-10-04T01:03:06.405Z,95487.13
2022-10-04T01:05:37.631Z,95491.28
2022-10-04T01:08:10.897Z,95493.50
2022-10-04T01:10:44.648Z,95487.00
2022-10-04T01:13:15.344Z,95490.16
2022-10-04T01:15:50.610Z,95493.66
2022-10-04T01:18:30.895Z,95482.59
2022-10-04T01:21:03.986Z,95491.06
2022-10-04T01:23:36.762Z,95485.22
2022-10-04T01:26:05.999Z,95470.66
2022-10-04T01:28:35.654Z,95484.09
2022-10-04T01:31:03.905Z,95482.53
2022-10-04T01:33:31.844Z,95492.41
2022-10-04T01:35:59.815Z,95490.34
2022-10-04T01:38:27.764Z,95492.13
2022-10-04T01:41:01.117Z,95491.84
2022-10-04T01:43:36.343Z,95488.56
2022-10-04T01:46:09.749Z,95490.00
2022-10-04T01:48:42.153Z,95490.63
2022-10-04T01:51:15.289Z,95443.88
2022-10-04T01:53:48.993Z,95498.47
2022-10-04T01:56:22.589Z,95481.88
2022-10-04T01:58:53.793Z,95476.47
2022-10-04T02:01:26.729Z,95494.69
2022-10-04T02:04:01.200Z,95494.09
2022-10-04T02:06:31.054Z,95493.03
2022-10-04T02:08:59.835Z,95489.34
2022-10-04T02:11:31.264Z,95470.25
2022-10-04T02:14:01.220Z,95449.69
2022-10-04T02:16:29.565Z,95510.44
2022-10-04T02:18:58.412Z,95506.16
2022-10-04T02:21:26.604Z,95514.13
2022-10-04T02:23:54.968Z,95499.09
2022-10-04T02:26:23.074Z,95498.31
2022-10-04T02:28:52.424Z,95497.84
2022-10-04T02:31:40.851Z,95496.72
2022-10-04T02:34:09.288Z,95513.56
2022-10-04T02:36:38.786Z,95525.09
2022-10-04T02:39:13.904Z,95499.47
2022-10-04T02:41:47.567Z,95508.31
2022-10-04T02:44:22.759Z,95519.38
2022-10-04T02:46:55.061Z,95520.19
2022-10-04T02:49:32.055Z,95522.75
2022-10-04T02:52:04.972Z,95526.22
2022-10-04T02:54:39.059Z,95530.34
2022-10-04T02:57:12.175Z,95524.78
2022-10-04T02:59:41.827Z,95539.06
2022-10-04T03:02:29.408Z,95511.00
2022-10-04T03:05:04.779Z,95537.13
2022-10-04T03:07:33.944Z,95539.06
2022-10-04T03:10:03.311Z,95536.84
2022-10-04T03:12:31.792Z,95530.34
2022-10-04T03:15:01.042Z,95548.56
2022-10-04T03:17:30.139Z,95536.84
2022-10-04T03:19:58.850Z,95550.59
2022-10-04T03:22:26.723Z,95556.47
2022-10-04T03:24:58.278Z,95554.22
2022-10-04T03:27:29.788Z,95551.69
2022-10-04T03:29:59.507Z,95564.50
2022-10-04T03:32:30.727Z,95565.94
2022-10-04T03:35:01.013Z,95550.94
2022-10-04T03:37:32.520Z,95569.47
2022-10-04T03:40:02.640Z,95555.25
2022-10-04T03:42:34.280Z,95562.50
2022-10-04T03:45:06.299Z,95560.63
2022-10-04T03:47:38.964Z,95568.22
2022-10-04T03:50:14.811Z,95576.50
2022-10-04T03:52:48.417Z,95567.75
2022-10-04T03:55:17.468Z,95562.88
2022-10-04T03:57:45.716Z,95576.66
2022-10-04T04:00:16.789Z,95586.16
2022-10-04T04:02:51.248Z,95580.59
2022-10-04T04:05:25.069Z,95586.00
2022-10-04T04:08:02.240Z,95578.53
2022-10-04T04:10:32.861Z,95580.78
2022-10-04T04:13:06.673Z,95589.69
2022-10-04T04:15:35.616Z,95591.09
2022-10-04T04:18:06.989Z,95598.56
2022-10-04T04:20:37.822Z,95594.09
2022-10-04T04:23:19.948Z,95596.03
2022-10-04T04:26:01.278Z,95581.44
2022-10-04T04:28:34.153Z,95591.28
2022-10-04T04:31:06.252Z,95591.59
2022-10-04T04:33:43.556Z,95606.63
2022-10-04T04:36:13.790Z,95604.56
2022-10-04T04:39:01.609Z,95589.81
2022-10-04T04:41:35.423Z,95605.50
2022-10-04T04:44:03.473Z,95593.16
2022-10-04T04:46:32.333Z,95601.38
2022-10-04T04:49:05.436Z,95520.16
2022-10-04T04:51:34.528Z,95606.28
2022-10-04T04:54:05.594Z,95559.56
2022-10-04T04:56:35.207Z,95610.72
2022-10-04T04:59:07.417Z,95616.25
2022-10-04T05:01:37.356Z,95617.88
2022-10-04T05:04:17.664Z,95608.84
2022-10-04T05:06:47.340Z,95621.19
2022-10-04T05:09:24.665Z,95613.13
2022-10-04T05:11:55.329Z,95613.38
2022-10-04T05:14:23.263Z,95621.53
2022-10-04T05:16:53.419Z,95612.41
2022-10-04T05:19:27.928Z,95615.84
2022-10-04T05:21:58.792Z,95619.50
2022-10-04T05:24:30.114Z,95618.25
2022-10-04T05:27:00.515Z,95599.81
2022-10-04T05:29:32.396Z,95618.72
2022-10-04T05:32:24.129Z,95613.06
2022-10-04T05:34:54.583Z,95629.53
2022-10-04T05:37:35.770Z,95644.38
2022-10-04T05:40:19.524Z,95639.09
2022-10-04T05:42:47.946Z,95608.06
2022-10-04T05:45:19.656Z,95646.84
2022-10-04T05:47:50.591Z,95640.56
2022-10-04T05:50:24.083Z,95646.56
2022-10-04T05:52:53.388Z,95652.88
2022-10-04T05:55:29.641Z,95538.50
2022-10-04T05:58:35.832Z,95654.97
2022-10-04T06:01:24.828Z,95666.16
2022-10-04T06:04:16.647Z,95664.56
2022-10-04T06:06:52.351Z,95659.97
2022-10-04T06:09:49.875Z,95649.56
2022-10-04T06:12:31.758Z,95666.88
2022-10-04T06:15:29.409Z,95677.19
2022-10-04T06:18:10.164Z,95682.94
2022-10-04T06:21:12.137Z,95674.84
2022-10-04T06:23:49.360Z,95673.50
2022-10-04T06:26:22.274Z,95679.88
2022-10-04T06:28:54.136Z,95663.72
2022-10-04T06:31:45.351Z,95684.63
2022-10-04T06:34:48.224Z,95686.38
2022-10-04T06:37:47.524Z,95693.38
2022-10-04T06:40:48.376Z,95695.22
2022-10-04T06:43:29.151Z,95688.56
2022-10-04T06:46:09.837Z,95698.28
2022-10-04T06:49:19.473Z,95699.19
2022-10-04T06:52:21.438Z,95701.69
2022-10-04T06:55:18.006Z,95689.25
2022-10-04T06:58:17.054Z,95666.47
2022-10-04T07:00:54.578Z,95687.78
2022-10-04T07:03:27.784Z,95694.16
2022-10-04T07:05:59.083Z,95693.75
2022-10-04T07:08:35.526Z,95699.78
2022-10-04T07:11:13.957Z,95701.88
2022-10-04T07:13:50.092Z,95697.53
2022-10-04T07:16:29.961Z,95701.75
2022-10-04T07:19:08.354Z,95712.59
2022-10-04T07:21:43.808Z,95712.25
2022-10-04T07:24:20.580Z,95722.59
2022-10-04T07:26:51.483Z,95721.47
2022-10-04T07:29:24.835Z,95729.44
2022-10-04T07:32:05.219Z,95733.19
2022-10-04T07:34:36.169Z,95728.75
2022-10-04T07:37:12.684Z,95728.09
2022-10-04T07:39:48.012Z,95735.53
2022-10-04T07:42:23.688Z,95737.34
2022-10-04T07:45:04.891Z,95733.75
2022-10-04T07:47:33.279Z,95732.16
2022-10-04T07:50:01.205Z,95739.63
2022-10-04T07:52:43.040Z,95743.66
2022-10-04T07:55:22.848Z,95741.66
2022-10-04T07:58:00.113Z,95747.41
2022-10-04T08:00:37.706Z,95709.16
2022-10-04T08:03:32.071Z,95750.00
2022-10-04T08:06:12.093Z,95733.84
2022-10-04T08:09:05.450Z,95749.66
2022-10-04T08:11:44.684Z,95746.84
2022-10-04T08:14:25.615Z,95736.41
2022-10-04T08:17:13.076Z,95730.53
2022-10-04T08:19:58.031Z,95740.22
2022-10-04T08:22:44.303Z,95743.69
2022-10-04T08:25:22.181Z,95741.31
2022-10-04T08:28:24.070Z,95730.63
2022-10-04T08:31:04.147Z,95725.97
2022-10-04T08:33:53.888Z,95739.59
2022-10-04T08:36:38.743Z,95720.03
2022-10-04T08:39:19.124Z,95735.00
2022-10-04T08:42:15.282Z,95721.38
2022-10-04T08:45:21.097Z,95722.16
2022-10-04T08:48:24.618Z,95723.31
2022-10-04T08:51:42.860Z,95727.22
2022-10-04T08:54:42.664Z,95730.69
2022-10-04T08:57:45.493Z,95713.38
2022-10-04T09:00:17.841Z,95730.38
2022-10-04T09:03:28.369Z,95735.75
2022-10-04T09:06:16.132Z,95724.94
2022-10-04T09:09:21.927Z,95726.66
2022-10-04T09:12:20.185Z,95722.50
2022-10-04T09:15:07.873Z,95716.44
2022-10-04T09:17:44.599Z,95723.53
2022-10-04T09:20:39.881Z,95732.25
2022-10-04T09:23:18.183Z,95679.63
2022-10-04T09:25:56.664Z,95717.97
2022-10-04T09:29:05.876Z,95678.56
2022-10-04T09:32:15.036Z,95715.25
2022-10-04T09:35:03.998Z,95699.53
2022-10-04T09:37:45.568Z,95741.59
2022-10-04T09:40:55.123Z,95746.19
2022-10-04T09:43:56.296Z,95741.59
2022-10-04T09:46:57.502Z,95746.13
2022-10-04T09:49:47.860Z,95740.22
2022-10-04T09:52:30.103Z,95735.03
2022-10-04T09:55:23.263Z,95714.53
2022-10-04T09:58:32.379Z,95711.81
2022-10-04T10:01:08.983Z,95730.34
2022-10-04T10:04:03.615Z,95728.59
2022-10-04T10:06:49.949Z,95684.59
2022-10-04T10:09:48.798Z,95701.19
2022-10-04T10:13:07.039Z,95733.28
2022-10-04T10:15:43.722Z,95722.63
2022-10-04T10:18:22.683Z,95742.31
2022-10-04T10:21:12.790Z,95755.91
2022-10-04T10:23:58.540Z,95733.25
2022-10-04T10:26:36.596Z,95743.38
2022-10-04T10:29:23.801Z,95738.38
2022-10-04T10:32:05.720Z,95745.91
2022-10-04T10:34:58.062Z,95732.56
2022-10-04T10:37:42.350Z,95734.59
2022-10-04T10:40:43.620Z,95695.63
2022-10-04T10:43:46.623Z,95703.09
2022-10-04T10:46:28.501Z,95750.31
2022-10-04T10:49:26.984Z,95741.72
2022-10-04T10:52:15.369Z,95712.88
2022-10-04T10:55:33.585Z,95728.41
2022-10-04T10:58:46.550Z,95745.19
2022-10-04T11:01:37.463Z,95721.06
2022-10-04T11:04:35.956Z,95725.38
2022-10-04T11:07:37.384Z,95751.78
2022-10-04T11:10:37.959Z,95751.97
2022-10-04T11:13:26.532Z,95751.56
2022-10-04T11:16:19.631Z,95741.06
2022-10-04T11:19:36.961Z,95733.84
2022-10-04T11:22:45.393Z,95732.44
2022-10-04T11:25:44.522Z,95720.38
2022-10-04T11:28:19.051Z,95729.91
2022-10-04T11:31:14.522Z,95743.50
2022-10-04T11:34:02.982Z,95738.50
2022-10-04T11:36:57.059Z,95742.56
2022-10-04T11:39:47.926Z,95741.31
2022-10-04T11:42:26.396Z,95730.56
2022-10-04T11:45:33.490Z,95751.94
2022-10-04T11:48:17.633Z,95752.34
2022-10-04T11:51:03.142Z,95725.03
2022-10-04T11:54:10.525Z,95753.19
2022-10-04T11:57:05.709Z,95736.72
2022-10-04T11:59:47.647Z,95746.84
2022-10-04T12:02:43.088Z,95753.63
2022-10-04T12:05:38.831Z,95756.63
2022-10-04T12:08:24.277Z,95748.53
2022-10-04T12:19:20.954Z,95739.31
2022-10-04T12:21:59.172Z,95728.91
2022-10-04T12:24:59.529Z,95741.75
2022-10-04T12:27:59.591Z,95744.44
2022-10-04T12:30:42.055Z,95742.19
2022-10-04T12:33:20.176Z,95729.69
2022-10-04T12:35:58.682Z,95734.91
2022-10-04T12:38:55.806Z,95745.09
2022-10-04T12:41:33.185Z,95686.63
2022-10-04T12:44:16.620Z,95744.50
2022-10-04T12:46:56.108Z,95740.34
2022-10-04T12:49:38.129Z,95761.78
2022-10-04T12:52:12.715Z,95730.22
2022-10-04T12:54:44.881Z,95749.53
2022-10-04T12:57:42.577Z,95754.81
2022-10-04T13:00:20.562Z,95737.25
2022-10-04T13:03:21.953Z,95751.69
2022-10-04T13:06:03.018Z,95754.81
2022-10-04T13:08:56.456Z,95749.56
2022-10-04T13:11:53.292Z,95742.63
2022-10-04T13:15:00.793Z,95749.50
2022-10-04T13:17:40.925Z,95741.22
2022-10-04T13:20:48.697Z,95748.59
2022-10-04T13:23:32.883Z,95740.28
2022-10-04T13:26:28.969Z,95746.19
2022-10-04T13:29:04.972Z,95749.50
2022-10-04T13:31:40.062Z,95751.91
2022-10-04T13:34:26.839Z,95750.44
2022-10-04T13:37:11.151Z,95752.25
2022-10-04T13:40:15.852Z,95761.56
2022-10-04T13:43:06.859Z,95762.28
2022-10-04T13:45:45.308Z,95625.44
2022-10-04T13:48:27.416Z,95763.97
2022-10-04T13:51:20.407Z,95767.78
2022-10-04T13:54:17.145Z,95747.84
2022-10-04T13:57:13.323Z,95772.59
2022-10-04T13:59:45.809Z,95756.97
2022-10-04T14:02:49.133Z,95780.22
2022-10-04T14:05:42.154Z,95703.81
2022-10-04T14:08:48.385Z,95764.31
2022-10-04T14:12:03.301Z,95776.63
2022-10-04T14:15:17.282Z,95784.34
2022-10-04T14:18:13.159Z,95759.72
2022-10-04T14:21:19.427Z,95786.28
2022-10-04T14:24:15.193Z,95759.75
2022-10-04T14:27:17.772Z,95787.03
2022-10-04T14:30:03.227Z,95793.50
2022-10-04T14:33:07.189Z,95797.09
2022-10-04T14:35:45.422Z,95801.91
2022-10-04T14:38:48.586Z,95802.09
2022-10-04T14:41:50.328Z,95809.47
2022-10-04T14:44:45.673Z,95805.19
2022-10-04T14:48:01.967Z,95814.13
2022-10-04T14:50:34.314Z,95789.72
2022-10-04T14:53:16.629Z,95820.13
2022-10-04T14:56:20.883Z,95800.47
2022-10-04T14:59:01.073Z,95654.09
2022-10-04T15:01:30.174Z,95828.44
2022-10-04T15:04:19.834Z,95811.75
2022-10-04T15:06:51.404Z,95820.13
2022-10-04T15:09:53.766Z,95836.72
2022-10-04T15:13:10.069Z,95842.03
2022-10-04T15:15:41.757Z,95850.78
2022-10-04T15:18:28.134Z,95819.34
2022-10-04T15:21:01.528Z,95701.56
2022-10-04T15:23:37.909Z,95860.06
2022-10-04T15:26:41.782Z,95857.78
2022-10-04T15:29:23.744Z,95860.94
2022-10-04T15:32:04.218Z,95858.25
2022-10-04T15:34:39.603Z,95868.88
2022-10-04T15:37:25.371Z,95816.44
2022-10-04T15:40:25.736Z,95864.09
2022-10-04T15:43:07.445Z,95868.63
2022-10-04T15:46:07.038Z,95820.25
2022-10-04T15:48:52.381Z,95869.28
2022-10-04T15:51:42.417Z,95885.47
2022-10-04T15:54:34.162Z,95890.28
2022-10-04T15:57:05.247Z,95894.25
2022-10-04T15:59:52.076Z,95891.31
2022-10-04T16:02:44.387Z,95884.84
2022-10-04T16:05:22.010Z,95894.13
2022-10-04T16:08:07.065Z,95896.59
2022-10-04T16:11:08.172Z,95901.78
2022-10-04T16:14:03.871Z,95881.50
2022-10-04T16:17:15.152Z,95905.13
2022-10-04T16:20:14.853Z,95761.63
2022-10-04T16:23:21.872Z,95914.22
2022-10-04T16:25:49.787Z,95913.13
2022-10-04T16:28:38.239Z,95905.31
2022-10-04T16:31:24.759Z,95903.13
2022-10-04T16:34:03.951Z,95920.00
2022-10-04T16:36:47.764Z,95936.25
2022-10-04T16:39:51.893Z,95934.03
2022-10-04T16:42:24.304Z,95948.66
2022-10-04T16:44:57.077Z,95889.19
2022-10-04T16:47:29.929Z,95936.00
2022-10-04T16:50:01.804Z,95956.97
2022-10-04T16:52:46.085Z,95955.22
2022-10-04T16:55:37.899Z,95945.22
2022-10-04T16:58:52.525Z,95970.31
2022-10-04T17:01:50.676Z,95964.31
2022-10-04T17:04:40.771Z,95981.97
2022-10-04T17:07:21.276Z,95976.41
2022-10-04T17:09:50.766Z,95855.16
2022-10-04T17:12:21.001Z,95980.09
2022-10-04T17:14:57.924Z,95994.31
2022-10-04T17:17:40.299Z,95956.53
2022-10-04T17:20:18.490Z,95962.63
2022-10-04T17:22:58.356Z,95977.03
2022-10-04T17:25:34.265Z,95986.59
2022-10-04T17:28:18.430Z,95993.59
2022-10-04T17:30:54.407Z,96003.19
2022-10-04T17:33:39.189Z,95994.44
2022-10-04T17:36:25.988Z,95990.34
2022-10-04T17:39:05.646Z,95869.56
2022-10-04T17:41:49.259Z,95989.28
2022-10-04T17:44:50.222Z,96015.19
2022-10-04T17:47:24.144Z,96014.25
2022-10-04T17:50:21.625Z,96023.31
2022-10-04T17:53:12.568Z,95865.03
2022-10-04T17:55:50.555Z,96025.91
2022-10-04T17:58:23.250Z,96033.22
2022-10-04T18:00:59.763Z,96022.56
2022-10-04T18:03:37.246Z,96037.50
2022-10-04T18:06:16.746Z,96030.41
2022-10-04T18:08:52.379Z,96046.22
2022-10-04T18:11:29.635Z,96046.56
2022-10-04T18:14:03.639Z,96035.47
2022-10-04T18:16:33.786Z,96043.59
2022-10-04T18:19:37.178Z,96002.16
2022-10-04T18:22:15.034Z,96063.00
2022-10-04T18:24:44.878Z,96057.56
2022-10-04T18:27:19.618Z,95912.72
2022-10-04T18:30:00.478Z,96046.03
2022-10-04T18:32:34.437Z,96057.47
2022-10-04T18:35:04.239Z,96057.81
2022-10-04T18:37:37.244Z,96059.25
2022-10-04T18:40:16.896Z,96048.16
2022-10-04T18:42:52.197Z,96052.41
2022-10-04T18:45:23.646Z,96052.47
2022-10-04T18:47:52.347Z,96059.63
2022-10-04T18:50:33.884Z,96042.38
2022-10-04T18:53:24.704Z,96059.19
2022-10-04T18:56:01.380Z,96065.06
2022-10-04T18:59:04.494Z,96071.00
2022-10-04T19:02:03.502Z,96077.50
2022-10-04T19:04:48.688Z,96076.41
2022-10-04T19:07:19.463Z,96085.97
2022-10-04T19:10:07.986Z,96081.06
2022-10-04T19:12:45.682Z,96078.50
2022-10-04T19:15:27.540Z,96086.31
2022-10-04T19:18:05.912Z,96076.16
2022-10-04T19:20:41.356Z,96087.44
2022-10-04T19:23:25.099Z,96087.44
2022-10-04T19:26:29.982Z,96092.19
2022-10-04T19:28:46.680Z,96092.84
2022-10-04T19:31:22.186Z,96079.81
2022-10-04T19:33:57.102Z,96081.41
2022-10-04T19:36:36.572Z,96041.84
2022-10-04T19:39:18.085Z,96100.81
2022-10-04T19:41:55.555Z,96102.09
2022-10-04T19:44:36.080Z,96104.63
2022-10-04T19:47:17.568Z,96102.22
2022-10-04T19:49:52.141Z,96101.91
2022-10-04T19:52:24.816Z,96097.94
2022-10-04T19:54:59.060Z,96102.06
2022-10-04T19:57:39.301Z,96098.88
2022-10-04T20:00:12.785Z,96096.00
2022-10-04T20:02:48.452Z,96102.69
2022-10-04T20:05:24.871Z,96102.69
2022-10-04T20:07:57.449Z,96101.28
2022-10-04T20:10:36.389Z,96098.88
2022-10-04T20:13:25.962Z,96104.28
2022-10-04T20:15:56.449Z,96119.19
2022-10-04T20:18:59.594Z,96117.63
2022-10-04T20:21:32.102Z,96117.28
2022-10-04T20:24:01.575Z,96093.56
2022-10-04T20:27:01.420Z,96134.44
2022-10-04T20:29:59.035Z,96128.25
2022-10-04T20:32:54.652Z,96138.09
2022-10-04T20:36:09.007Z,96129.66
2022-10-04T20:39:02.616Z,96121.72
2022-10-04T20:42:22.504Z,96136.50
2022-10-04T20:44:56.773Z,96136.63
2022-10-04T20:47:34.208Z,96144.88
2022-10-04T20:50:03.743Z,96148.84
2022-10-04T20:52:33.950Z,96126.25
2022-10-04T20:55:08.769Z,96148.16
2022-10-04T20:57:40.711Z,96155.59
2022-10-04T21:00:22.090Z,96159.44
2022-10-04T21:02:50.350Z,96148.44
2022-10-04T21:05:25.384Z,96164.97
2022-10-04T21:08:22.642Z,96161.91
2022-10-04T21:11:05.456Z,96152.81
2022-10-04T21:13:44.055Z,96096.25
2022-10-04T21:16:11.985Z,96158.66
2022-10-04T21:18:39.883Z,96163.56
2022-10-04T21:21:10.697Z,96157.97
2022-10-04T21:23:38.557Z,96168.28
2022-10-04T21:26:24.987Z,96162.56
2022-10-04T21:28:54.691Z,96163.38
2022-10-04T21:31:22.640Z,96164.28
2022-10-04T21:33:50.463Z,96167.31
2022-10-04T21:36:18.272Z,96170.25
2022-10-04T21:38:46.068Z,96161.38
2022-10-04T21:41:13.912Z,96166.59
2022-10-04T21:43:43.089Z,96156.28
2022-10-04T21:46:10.943Z,96165.31
2022-10-04T21:48:38.787Z,96165.19
2022-10-04T21:51:06.628Z,96163.44
2022-10-04T21:53:34.427Z,96168.84
2022-10-04T21:56:03.392Z,96159.16
2022-10-04T21:58:31.208Z,96171.88
2022-10-04T22:01:00.576Z,96172.63
2022-10-04T22:03:28.447Z,96170.75
2022-10-04T22:05:56.276Z,96173.19
2022-10-04T22:08:24.139Z,96167.88
2022-10-04T22:10:55.482Z,96173.09
2022-10-04T22:13:26.785Z,96181.13
2022-10-04T22:15:55.224Z,96178.97
2022-10-04T22:18:24.449Z,96184.38
2022-10-04T22:20:52.249Z,96180.31
2022-10-04T22:23:21.759Z,96185.63
2022-10-04T22:25:50.168Z,96183.66
2022-10-04T22:28:22.140Z,96190.63
2022-10-04T22:30:50.572Z,96185.03
2022-10-04T22:33:32.242Z,96172.69
2022-10-04T22:36:06.599Z,96188.75
2022-10-04T22:38:34.436Z,96197.22
2022-10-04T22:41:02.321Z,96182.00
2022-10-04T22:43:30.149Z,96205.19
2022-10-04T22:45:58.306Z,96202.41
2022-10-04T22:48:29.006Z,96205.19
2022-10-04T22:50:56.961Z,96209.56
2022-10-04T22:53:25.057Z,96209.84
2022-10-04T22:55:55.913Z,96217.72
2022-10-04T22:58:24.163Z,96210.16
2022-10-04T23:00:52.060Z,96209.16
2022-10-04T23:03:28.945Z,96208.69
2022-10-04T23:05:56.769Z,96202.50
2022-10-04T23:08:24.621Z,96208.75
2022-10-04T23:10:54.783Z,96200.78
2022-10-04T23:13:24.858Z,96198.50
2022-10-04T23:15:53.413Z,96203.78
2022-10-04T23:18:21.311Z,96191.19
2022-10-04T23:20:57.956Z,96206.34
2022-10-04T23:23:28.476Z,96211.69
2022-10-04T23:25:56.325Z,96199.53
2022-10-04T23:28:25.485Z,96213.03
2022-10-04T23:31:03.348Z,96228.09
2022-10-04T23:33:31.424Z,96223.91
2022-10-04T23:36:00.682Z,96224.75
2022-10-04T23:38:30.413Z,96224.91
2022-10-04T23:40:58.329Z,96224.66
2022-10-04T23:43:26.894Z,96219.78
2022-10-04T23:45:57.034Z,96222.78
2022-10-04T23:48:27.447Z,96222.91
2022-10-04T23:50:57.325Z,96219.28
2022-10-04T23:53:29.240Z,96231.69
2022-10-04T23:55:58.767Z,96220.81
2022-10-04T23:58:35.049Z,96158.91
